Time;durP1;ratioP1;P1;durP2;ratioP2;P2;SDS_P1;SDS_P2;PMS_P1;PMS_P2;Temp;Humidity;BMP_temperature;BMP_pressure;BME280_temperature;BME280_humidity;BME280_pressure;Samples;Min_cycle;Max_cycle;Signal;HPM_P1;HPM_P2
2023/03/08 00:01:23;;;;;;;6.53;1.80;;;2.30;99.90;;;;;;5068080;28;20466;-84
2023/03/08 00:03:54;;;;;;;6.03;2.15;;;0.50;99.90;;;;;;5064209;28;20098;-84
2023/03/08 00:06:20;;;;;;;6.25;1.77;;;0.60;99.90;;;;;;5048176;28;20068;-85
2023/03/08 00:08:47;;;;;;;6.32;1.80;;;0.50;99.90;;;;;;5068392;28;20048;-84
2023/03/08 00:11:13;;;;;;;5.45;1.80;;;0.60;99.90;;;;;;5051789;28;20674;-85
2023/03/08 00:13:40;;;;;;;5.82;1.80;;;2.20;99.90;;;;;;5032304;28;20094;-84
2023/03/08 00:16:11;;;;;;;8.52;1.88;;;0.60;99.90;;;;;;5066140;28;20043;-85
2023/03/08 00:18:36;;;;;;;6.72;1.70;;;0.60;99.90;;;;;;5079616;28;20048;-84
2023/03/08 00:21:09;;;;;;;6.57;1.83;;;0.60;99.90;;;;;;5054776;28;20178;-84
2023/03/08 00:23:35;;;;;;;5.30;1.80;;;0.60;99.90;;;;;;5069271;28;20032;-85
2023/03/08 00:26:01;;;;;;;7.80;1.80;;;0.60;99.90;;;;;;5067581;28;20044;-85
2023/03/08 00:28:27;;;;;;;6.28;1.90;;;0.60;99.90;;;;;;5066719;28;20177;-85
2023/03/08 00:30:56;;;;;;;4.40;1.70;;;0.60;99.90;;;;;;5063991;28;20513;-83
2023/03/08 00:33:22;;;;;;;6.43;1.80;;;0.50;99.90;;;;;;5069234;28;20045;-84
2023/03/08 00:35:59;;;;;;;5.00;1.80;;;0.60;99.90;;;;;;5067670;28;20101;-85
2023/03/08 00:38:25;;;;;;;5.25;1.73;;;0.60;99.90;;;;;;5083367;28;20064;-85
2023/03/08 00:40:51;;;;;;;6.50;1.85;;;0.10;99.90;;;;;;5067312;28;20051;-84
2023/03/08 00:43:17;;;;;;;5.60;1.80;;;0.50;99.90;;;;;;5038398;28;20125;-84
2023/03/08 00:45:43;;;;;;;4.60;1.75;;;0.50;99.90;;;;;;5049247;28;20162;-84
2023/03/08 00:48:08;;;;;;;9.18;1.80;;;0.40;99.90;;;;;;5021561;28;20087;-84
2023/03/08 00:50:34;;;;;;;4.50;1.70;;;-1.70;99.90;;;;;;5051076;28;20097;-85
2023/03/08 00:53:00;;;;;;;7.22;2.00;;;2.00;99.90;;;;;;5050275;28;20051;-86
2023/03/08 00:55:26;;;;;;;4.00;1.65;;;0.30;99.90;;;;;;5084768;28;20036;-84
2023/03/08 00:57:51;;;;;;;6.45;1.88;;;-0.10;99.90;;;;;;5050201;28;20052;-85
2023/03/08 01:00:17;;;;;;;5.82;1.90;;;0.30;99.90;;;;;;5051034;28;20158;-85
2023/03/08 01:02:43;;;;;;;7.38;1.90;;;0.30;99.90;;;;;;5071406;28;20046;-84
2023/03/08 01:05:09;;;;;;;5.15;1.85;;;0.20;99.90;;;;;;5088783;28;20044;-84
2023/03/08 01:07:35;;;;;;;7.35;2.15;;;1.80;99.90;;;;;;5071049;28;20413;-85
2023/03/08 01:10:02;;;;;;;4.85;1.60;;;0.20;99.90;;;;;;5071098;28;20041;-85
2023/03/08 01:12:28;;;;;;;7.05;1.80;;;0.20;99.90;;;;;;5071395;28;20052;-85
2023/03/08 01:14:54;;;;;;;8.73;2.22;;;0.10;99.90;;;;;;5056284;28;20130;-85
2023/03/08 01:17:19;;;;;;;7.68;2.05;;;0.20;99.90;;;;;;5071689;28;20102;-86
2023/03/08 01:19:46;;;;;;;6.07;1.80;;;;;;;;;;5070115;28;21865;-85
2023/03/08 01:22:11;;;;;;;7.18;1.88;;;0.20;99.90;;;;;;5071242;28;20441;-85
2023/03/08 01:24:47;;;;;;;4.30;1.77;;;;;;;;;;5072642;28;20036;-84
2023/03/08 01:28:05;;;;;;;6.78;1.90;;;0.10;99.90;;;;;;5055869;28;20143;-84
2023/03/08 01:30:36;;;;;;;7.03;2.08;;;1.70;99.90;;;;;;5063779;28;20064;-85
2023/03/08 01:33:10;;;;;;;7.90;2.17;;;0.00;99.90;;;;;;5066828;28;20588;-85
2023/03/08 01:38:54;;;;;;;7.93;1.90;;;0.00;99.90;;;;;;5045476;28;20049;-85
2023/03/08 01:41:26;;;;;;;5.95;1.98;;;0.00;99.90;;;;;;5070750;28;20036;-85
2023/03/08 01:43:53;;;;;;;8.20;2.08;;;0.00;99.90;;;;;;5054572;28;20036;-85
2023/03/08 01:46:27;;;;;;;5.35;1.70;;;-0.10;99.90;;;;;;5069911;28;20044;-85
2023/03/08 01:49:15;;;;;;;6.60;1.85;;;-0.10;99.90;;;;;;5054322;28;20135;-86
2023/03/08 01:52:05;;;;;;;6.65;2.00;;;-0.10;99.90;;;;;;5087728;28;20119;-86
2023/03/08 01:54:45;;;;;;;5.75;1.90;;;-0.10;99.90;;;;;;5053619;28;20127;-85
2023/03/08 01:57:19;;;;;;;5.55;1.83;;;-0.10;99.90;;;;;;5070102;28;20036;-85
2023/03/08 01:59:47;;;;;;;4.82;1.70;;;-0.10;99.90;;;;;;5084945;28;20033;-86
2023/03/08 02:02:12;;;;;;;7.15;1.90;;;-0.10;99.90;;;;;;5068952;28;20052;-84
2023/03/08 02:04:39;;;;;;;6.15;1.80;;;-0.10;99.90;;;;;;5070194;28;20041;-85
2023/03/08 02:07:05;;;;;;;6.60;1.80;;;-0.10;99.90;;;;;;5069747;28;20036;-85
2023/03/08 02:09:31;;;;;;;6.70;1.80;;;-0.10;99.90;;;;;;5073165;28;20513;-85
2023/03/08 02:12:00;;;;;;;6.95;1.98;;;-0.10;99.90;;;;;;5069113;28;20432;-85
2023/03/08 02:14:27;;;;;;;7.28;1.70;;;-0.20;99.90;;;;;;5070384;28;20105;-86
2023/03/08 02:16:53;;;;;;;5.25;1.60;;;-0.10;99.90;;;;;;5069881;28;20168;-86
2023/03/08 02:19:51;;;;;;;7.63;1.77;;;-0.10;99.90;;;;;;5070407;28;20051;-85
2023/03/08 02:22:17;;;;;;;7.07;2.00;;;-0.10;99.90;;;;;;5084183;28;20048;-85
2023/03/08 02:24:43;;;;;;;6.28;1.80;;;-0.20;99.90;;;;;;5037046;28;20375;-85
2023/03/08 02:27:16;;;;;;;8.88;1.80;;;-0.10;99.90;;;;;;5053288;28;20052;-84
2023/03/08 02:29:42;;;;;;;5.57;1.70;;;0.90;99.90;;;;;;5051756;28;20040;-86
2023/03/08 02:32:08;;;;;;;8.20;2.00;;;-0.20;99.90;;;;;;5052978;28;20424;-85
2023/03/08 02:34:34;;;;;;;5.32;1.67;;;0.20;99.90;;;;;;5070369;28;20045;-85
2023/03/08 02:37:00;;;;;;;4.75;1.73;;;0.90;99.90;;;;;;5033027;28;20127;-85
2023/03/08 02:39:26;;;;;;;5.75;1.60;;;-0.10;99.90;;;;;;5027086;28;20045;-84
2023/03/08 02:41:51;;;;;;;6.68;1.60;;;-0.20;99.90;;;;;;5053484;28;20040;-85
2023/03/08 02:44:17;;;;;;;6.32;1.65;;;-0.20;99.90;;;;;;5069817;28;20040;-84
2023/03/08 02:46:43;;;;;;;6.78;1.73;;;-0.20;99.90;;;;;;5052265;28;20517;-84
2023/03/08 02:49:08;;;;;;;6.00;1.88;;;-0.10;99.90;;;;;;5057883;28;20048;-85
2023/03/08 02:51:34;;;;;;;5.82;1.70;;;-0.10;99.90;;;;;;5051081;28;20067;-85
2023/03/08 02:54:00;;;;;;;6.65;1.70;;;-0.10;99.90;;;;;;5069197;28;20413;-85
2023/03/08 02:56:25;;;;;;;5.90;1.70;;;-0.10;99.90;;;;;;5051925;28;20664;-84
2023/03/08 02:58:51;;;;;;;5.95;1.65;;;-0.10;99.90;;;;;;5069178;28;20086;-84
2023/03/08 03:01:17;;;;;;;5.68;1.80;;;-0.50;99.90;;;;;;5069233;28;20048;-85
2023/03/08 03:03:42;;;;;;;7.45;1.90;;;-0.10;99.90;;;;;;5033070;28;20464;-85
2023/03/08 03:06:13;;;;;;;6.03;1.60;;;-0.10;99.90;;;;;;5049870;28;20263;-84
2023/03/08 03:08:39;;;;;;;6.65;1.80;;;1.10;99.90;;;;;;5069166;28;20058;-84
2023/03/08 03:11:12;;;;;;;6.20;1.80;;;-0.10;99.90;;;;;;5015068;28;20108;-85
2023/03/08 03:13:38;;;;;;;6.60;1.70;;;-0.10;99.90;;;;;;5058082;28;20046;-84
2023/03/08 03:16:09;;;;;;;5.90;1.80;;;-0.10;99.90;;;;;;5051700;28;20037;-85
2023/03/08 03:18:34;;;;;;;5.45;1.70;;;-0.50;99.90;;;;;;5052527;28;20044;-86
2023/03/08 03:21:05;;;;;;;9.40;1.70;;;-0.20;99.90;;;;;;5066039;28;20054;-84
2023/03/08 03:23:31;;;;;;;5.38;1.60;;;-0.20;99.90;;;;;;5051515;28;20624;-85
2023/03/08 03:26:05;;;;;;;8.52;1.70;;;-0.20;99.90;;;;;;5057155;28;20079;-84
2023/03/08 03:28:31;;;;;;;7.47;1.92;;;-0.10;99.90;;;;;;5068745;28;20044;-84
2023/03/08 03:30:56;;;;;;;5.78;1.60;;;-0.10;99.90;;;;;;5050745;28;20044;-85
2023/03/08 03:33:22;;;;;;;5.28;1.70;;;0.80;99.90;;;;;;5050807;28;20429;-86
2023/03/08 03:35:48;;;;;;;8.98;1.80;;;-0.20;99.90;;;;;;5067652;28;20095;-84
2023/03/08 03:38:13;;;;;;;4.57;1.70;;;-0.20;99.90;;;;;;5067166;28;20063;-85
2023/03/08 03:40:39;;;;;;;7.38;1.70;;;-0.20;99.90;;;;;;5067010;28;20037;-85
2023/03/08 03:43:05;;;;;;;9.23;1.83;;;-0.20;99.90;;;;;;5035661;28;20127;-86
2023/03/08 03:45:31;;;;;;;9.23;2.00;;;-0.20;99.90;;;;;;5052161;28;20036;-85
2023/03/08 03:47:56;;;;;;;7.72;1.80;;;-0.50;99.90;;;;;;5051634;28;20123;-85
2023/03/08 03:50:22;;;;;;;5.55;1.70;;;;;;;;;;5051443;28;20078;-85
2023/03/08 03:52:48;;;;;;;5.80;1.98;;;-0.20;99.90;;;;;;5040473;28;20040;-85
2023/03/08 03:55:14;;;;;;;4.80;1.75;;;-0.20;99.90;;;;;;5052168;28;20098;-84
2023/03/08 03:57:40;;;;;;;5.20;1.60;;;-0.20;99.90;;;;;;5051640;28;20485;-84
2023/03/08 04:00:07;;;;;;;5.15;1.60;;;1.00;99.90;;;;;;5031078;28;20117;-84
2023/03/08 04:02:32;;;;;;;6.00;1.77;;;-0.20;99.90;;;;;;5045881;28;20044;-84
2023/03/08 04:04:58;;;;;;;5.90;1.77;;;-0.20;99.90;;;;;;5068405;28;20051;-85
2023/03/08 04:07:24;;;;;;;7.32;1.65;;;-0.30;99.90;;;;;;5052614;28;20028;-85
2023/03/08 04:09:49;;;;;;;10.43;1.83;;;-0.30;99.90;;;;;;5034439;28;20490;-85
2023/03/08 04:12:15;;;;;;;6.35;1.85;;;-0.30;99.90;;;;;;5067889;28;20040;-84
2023/03/08 04:14:41;;;;;;;6.43;1.50;;;2.00;99.90;;;;;;5084995;28;20089;-85
2023/03/08 04:17:07;;;;;;;5.85;1.60;;;-0.30;99.90;;;;;;5051469;28;20084;-85
2023/03/08 04:19:33;;;;;;;4.97;1.70;;;1.90;99.90;;;;;;5051807;28;20109;-83
2023/03/08 04:21:59;;;;;;;7.40;1.77;;;-0.40;99.90;;;;;;5035371;28;20584;-86
2023/03/08 04:24:24;;;;;;;6.95;2.28;;;-0.50;99.90;;;;;;5068955;28;20044;-85
2023/03/08 04:26:50;;;;;;;8.60;2.00;;;-0.40;99.90;;;;;;5067910;28;20040;-84
2023/03/08 04:29:16;;;;;;;6.68;1.98;;;0.50;99.90;;;;;;5032977;28;20405;-83
2023/03/08 04:31:41;;;;;;;5.07;1.85;;;-0.40;99.90;;;;;;5033697;28;20051;-85
2023/03/08 04:34:07;;;;;;;4.00;1.55;;;-0.40;99.90;;;;;;5068163;28;20052;-85
2023/03/08 04:36:33;;;;;;;7.57;2.13;;;-0.40;99.90;;;;;;5068071;28;20055;-84
2023/03/08 04:38:59;;;;;;;7.18;1.60;;;0.20;99.90;;;;;;5074948;28;20049;-85
2023/03/08 04:41:25;;;;;;;9.10;1.88;;;-0.60;99.90;;;;;;5068457;28;20036;-85
2023/03/08 04:43:53;;;;;;;9.27;1.90;;;-0.30;99.90;;;;;;5050522;28;20494;-85
2023/03/08 04:46:22;;;;;;;6.65;1.70;;;-0.50;99.90;;;;;;5067524;28;20109;-86
2023/03/08 04:48:48;;;;;;;4.13;1.60;;;-0.50;99.90;;;;;;5067365;28;20124;-85
2023/03/08 04:51:15;;;;;;;5.53;1.60;;;-0.50;99.90;;;;;;5066217;28;20125;-85
2023/03/08 04:53:43;;;;;;;5.90;1.70;;;2.10;99.90;;;;;;5071542;28;20032;-85
2023/03/08 04:56:10;;;;;;;7.80;1.80;;;-0.50;99.90;;;;;;5030814;28;20139;-84
2023/03/08 04:58:36;;;;;;;6.95;1.83;;;-0.50;99.90;;;;;;5042235;28;20079;-84
2023/03/08 05:01:16;;;;;;;6.43;1.80;;;-0.50;99.90;;;;;;5067493;28;20048;-85
2023/03/08 05:03:42;;;;;;;8.05;1.70;;;-0.40;99.90;;;;;;5067933;28;20043;-85
2023/03/08 05:06:08;;;;;;;5.60;1.83;;;-0.50;99.90;;;;;;5067073;28;20041;-84
2023/03/08 05:08:34;;;;;;;7.10;1.80;;;-0.70;99.90;;;;;;5076469;28;20037;-85
2023/03/08 05:11:01;;;;;;;6.18;1.80;;;-0.50;99.90;;;;;;5067396;28;20401;-85
2023/03/08 05:13:33;;;;;;;8.02;1.85;;;-0.50;99.90;;;;;;5066474;28;20397;-86
2023/03/08 05:16:00;;;;;;;5.88;1.60;;;-0.50;99.90;;;;;;5084384;28;20499;-84
2023/03/08 05:18:26;;;;;;;6.13;1.88;;;-0.60;99.90;;;;;;5067611;28;20060;-85
2023/03/08 05:21:01;;;;;;;5.68;1.70;;;-0.40;99.90;;;;;;5051942;28;20050;-86
2023/03/08 05:23:28;;;;;;;7.20;2.08;;;-0.40;99.90;;;;;;5068654;28;20051;-85
2023/03/08 05:25:56;;;;;;;5.90;1.80;;;-0.40;99.90;;;;;;5067387;28;20105;-86
2023/03/08 05:28:23;;;;;;;6.00;1.80;;;-0.50;99.90;;;;;;5068770;28;20401;-84
2023/03/08 05:30:49;;;;;;;8.45;2.00;;;-0.40;99.90;;;;;;5066922;28;20040;-85
2023/03/08 05:33:16;;;;;;;5.15;1.60;;;-0.40;99.90;;;;;;5049860;28;20057;-88
2023/03/08 05:35:42;;;;;;;5.07;1.65;;;-0.40;99.90;;;;;;5067340;28;20043;-84
2023/03/08 05:38:08;;;;;;;7.47;1.80;;;0.30;99.90;;;;;;5067789;28;20040;-85
2023/03/08 05:40:36;;;;;;;5.63;1.65;;;-0.50;99.90;;;;;;5067255;28;20413;-84
2023/03/08 05:43:01;;;;;;;7.75;1.65;;;-0.50;99.90;;;;;;5067158;28;20072;-85
2023/03/08 05:45:27;;;;;;;6.13;1.70;;;-0.50;99.90;;;;;;5051608;28;20056;-85
2023/03/08 05:47:53;;;;;;;6.03;1.80;;;-0.90;99.90;;;;;;5048164;28;20512;-86
2023/03/08 05:50:18;;;;;;;6.57;2.00;;;-0.60;99.90;;;;;;5038163;28;20044;-85
2023/03/08 05:52:46;;;;;;;7.65;2.20;;;-0.50;99.90;;;;;;5070833;28;20036;-85
2023/03/08 05:55:12;;;;;;;12.23;3.28;;;-0.50;99.90;;;;;;5067738;28;20044;-84
2023/03/08 05:57:38;;;;;;;10.00;3.13;;;-0.50;99.90;;;;;;5044299;28;20098;-84
2023/03/08 06:00:04;;;;;;;9.25;2.50;;;-0.50;99.90;;;;;;5061081;28;20048;-84
2023/03/08 06:02:29;;;;;;;8.32;2.05;;;-0.50;99.90;;;;;;5057613;28;20115;-84
2023/03/08 06:04:55;;;;;;;5.93;1.92;;;0.00;99.90;;;;;;5070172;28;20116;-85
2023/03/08 06:07:21;;;;;;;7.90;2.10;;;-0.60;99.90;;;;;;5048931;28;20040;-84
2023/03/08 06:09:47;;;;;;;7.38;2.00;;;-0.60;99.90;;;;;;5053671;28;20029;-86
2023/03/08 06:12:12;;;;;;;6.47;1.80;;;-0.60;99.90;;;;;;5057948;28;20505;-85
2023/03/08 06:14:38;;;;;;;7.35;2.30;;;-0.50;99.90;;;;;;5072543;28;20037;-85
2023/03/08 06:17:04;;;;;;;7.78;2.00;;;-0.50;99.90;;;;;;5038779;28;20090;-84
2023/03/08 06:19:29;;;;;;;6.50;2.22;;;-0.50;99.90;;;;;;5070163;28;20510;-85
2023/03/08 06:21:55;;;;;;;7.03;2.30;;;-0.50;99.90;;;;;;5076961;28;20036;-86
2023/03/08 06:24:21;;;;;;;6.32;2.22;;;1.80;99.90;;;;;;5070617;28;20067;-85
2023/03/08 06:26:47;;;;;;;7.75;2.33;;;;;;;;;;5069993;28;20048;-85
2023/03/08 06:29:13;;;;;;;9.07;2.65;;;-0.50;99.90;;;;;;5070307;28;20132;-87
2023/03/08 06:31:39;;;;;;;8.57;2.30;;;;;;;;;;5070748;28;20140;-85
2023/03/08 06:34:04;;;;;;;7.80;2.40;;;-0.50;99.90;;;;;;5068040;28;20123;-85
2023/03/08 06:36:30;;;;;;;8.00;2.50;;;0.80;99.90;;;;;;5069675;28;20231;-85
2023/03/08 06:38:58;;;;;;;8.40;2.60;;;-0.70;99.90;;;;;;5069785;28;20097;-85
2023/03/08 06:41:24;;;;;;;7.45;2.90;;;-0.50;99.90;;;;;;5060761;28;20064;-85
2023/03/08 06:43:49;;;;;;;8.30;2.70;;;-1.90;99.90;;;;;;5072327;28;20090;-85
2023/03/08 06:46:17;;;;;;;9.52;3.00;;;-0.40;99.90;;;;;;5051490;28;20041;-86
2023/03/08 06:48:44;;;;;;;9.30;3.13;;;-0.40;99.90;;;;;;5053223;28;20131;-84
2023/03/08 06:51:10;;;;;;;7.57;3.17;;;-0.40;99.90;;;;;;5053623;28;20051;-85
2023/03/08 06:53:37;;;;;;;11.68;3.20;;;-1.50;99.90;;;;;;5053873;28;20118;-85
2023/03/08 06:56:05;;;;;;;7.47;2.90;;;0.20;99.90;;;;;;5069249;28;20123;-85
2023/03/08 06:58:32;;;;;;;8.88;3.20;;;-0.30;99.90;;;;;;5053135;28;20136;-86
2023/03/08 07:01:03;;;;;;;9.57;3.30;;;-0.30;99.90;;;;;;5052856;28;20119;-85
2023/03/08 07:03:29;;;;;;;9.15;3.10;;;-0.20;99.90;;;;;;5054678;28;20393;-84
2023/03/08 07:05:59;;;;;;;8.18;3.13;;;-0.20;99.90;;;;;;5052342;28;20120;-85
2023/03/08 07:08:25;;;;;;;8.13;3.17;;;-0.20;99.90;;;;;;5065277;28;20494;-85
2023/03/08 07:10:51;;;;;;;9.07;3.90;;;-0.30;99.90;;;;;;5052595;28;20085;-85
2023/03/08 07:13:17;;;;;;;11.45;3.45;;;1.50;99.90;;;;;;5061737;28;20032;-84
2023/03/08 07:15:42;;;;;;;9.35;3.70;;;-0.10;99.90;;;;;;5070148;28;20531;-84
2023/03/08 07:18:10;;;;;;;11.32;3.97;;;-0.10;99.90;;;;;;5067239;28;20037;-87
2023/03/08 07:20:39;;;;;;;9.00;4.18;;;0.00;99.90;;;;;;5032023;28;20055;-89
2023/03/08 07:23:06;;;;;;;9.60;4.45;;;0.00;99.90;;;;;;5054208;28;20048;-88
2023/03/08 07:25:32;;;;;;;11.02;5.22;;;0.00;99.90;;;;;;5060888;28;20098;-88
2023/03/08 07:27:59;;;;;;;10.88;5.30;;;0.20;99.90;;;;;;5033875;28;20055;-88
2023/03/08 07:30:25;;;;;;;11.77;5.20;;;0.10;99.90;;;;;;5067532;28;20056;-88
2023/03/08 07:32:52;;;;;;;13.00;5.70;;;0.20;99.90;;;;;;5032613;28;20061;-89
2023/03/08 07:35:19;;;;;;;11.35;5.63;;;;;;;;;;5036919;28;20451;-88
2023/03/08 07:37:46;;;;;;;13.27;5.65;;;0.20;99.90;;;;;;5067785;28;20048;-88
2023/03/08 07:40:15;;;;;;;10.60;5.32;;;0.30;99.90;;;;;;5068816;28;20556;-88
2023/03/08 07:42:42;;;;;;;11.73;5.80;;;0.30;99.90;;;;;;5049857;28;20044;-89
2023/03/08 07:45:09;;;;;;;13.02;6.00;;;0.30;99.90;;;;;;5049295;28;20072;-88
2023/03/08 07:47:34;;;;;;;10.90;5.70;;;0.40;99.90;;;;;;5066667;28;20072;-89
2023/03/08 07:50:00;;;;;;;11.65;5.38;;;0.40;99.90;;;;;;5066142;28;20543;-87
2023/03/08 07:52:27;;;;;;;11.10;5.45;;;0.50;99.90;;;;;;5048983;28;20127;-87
2023/03/08 07:54:53;;;;;;;12.00;5.35;;;0.60;99.90;;;;;;5032157;28;20041;-88
2023/03/08 07:57:19;;;;;;;10.45;5.30;;;;;;;;;;5049844;28;20047;-89
2023/03/08 07:59:45;;;;;;;10.88;5.20;;;0.70;99.90;;;;;;5048615;28;20042;-88
2023/03/08 08:02:12;;;;;;;11.60;4.97;;;0.70;99.90;;;;;;5032943;28;20115;-89
2023/03/08 08:04:38;;;;;;;9.93;4.72;;;0.80;99.90;;;;;;5067450;28;20187;-88
2023/03/08 08:07:04;;;;;;;10.93;5.20;;;0.90;99.90;;;;;;5050686;28;20497;-88
2023/03/08 08:09:30;;;;;;;11.35;5.90;;;0.90;99.90;;;;;;5051666;28;20063;-89
2023/03/08 08:11:55;;;;;;;11.77;5.38;;;1.00;99.90;;;;;;5031664;28;20041;-88
2023/03/08 08:14:21;;;;;;;11.13;5.43;;;1.10;99.90;;;;;;5019566;28;20566;-92
2023/03/08 08:16:47;;;;;;;12.32;5.40;;;1.10;99.90;;;;;;5063877;28;20037;-89
2023/03/08 08:19:13;;;;;;;12.25;5.78;;;;;;;;;;5026604;28;20090;-88
2023/03/08 08:21:39;;;;;;;11.93;5.93;;;1.20;99.90;;;;;;5068046;28;20478;-87
2023/03/08 08:24:06;;;;;;;11.90;5.78;;;;;;;;;;5058284;28;20041;-88
2023/03/08 08:26:32;;;;;;;12.95;5.95;;;;;;;;;;5066810;28;20296;-88
2023/03/08 08:28:58;;;;;;;14.25;5.80;;;1.30;99.90;;;;;;5069277;28;20186;-89
2023/03/08 08:31:29;;;;;;;11.55;5.60;;;1.30;99.90;;;;;;5048502;28;20354;-89
2023/03/08 08:33:56;;;;;;;11.07;6.28;;;1.30;99.90;;;;;;5055237;28;20505;-89
2023/03/08 08:36:22;;;;;;;12.00;5.88;;;1.30;99.90;;;;;;5054578;28;20049;-90
2023/03/08 08:38:48;;;;;;;11.00;5.97;;;1.30;99.90;;;;;;5052591;28;20533;-89
2023/03/08 08:41:17;;;;;;;10.85;5.80;;;1.40;99.90;;;;;;5050523;28;20485;-88
2023/03/08 08:43:44;;;;;;;12.60;6.10;;;1.40;99.90;;;;;;5068958;28;20107;-90
2023/03/08 08:46:09;;;;;;;11.52;5.90;;;1.40;99.90;;;;;;5032770;28;20509;-90
2023/03/08 08:48:37;;;;;;;11.23;5.25;;;1.50;99.90;;;;;;5035222;28;20037;-90
2023/03/08 08:51:04;;;;;;;11.40;5.57;;;1.60;99.90;;;;;;5048698;28;20504;-88
2023/03/08 08:53:30;;;;;;;11.00;5.72;;;1.70;99.90;;;;;;5019238;28;20053;-90
2023/03/08 08:55:56;;;;;;;12.23;5.20;;;1.80;99.90;;;;;;5049979;28;20044;-88
2023/03/08 08:58:23;;;;;;;11.73;5.25;;;1.90;99.90;;;;;;5050531;28;20111;-88
2023/03/08 09:00:49;;;;;;;11.40;5.68;;;1.90;99.90;;;;;;5072924;28;20040;-90
2023/03/08 09:03:14;;;;;;;12.02;5.93;;;2.00;99.90;;;;;;5063712;28;20493;-89
2023/03/08 09:05:42;;;;;;;12.23;5.43;;;2.10;99.90;;;;;;5059076;28;20178;-89
2023/03/08 09:08:10;;;;;;;10.20;4.85;;;2.10;99.90;;;;;;5050409;28;20040;-90
2023/03/08 09:10:38;;;;;;;11.77;5.25;;;2.10;99.90;;;;;;5058739;28;20374;-89
2023/03/08 09:13:05;;;;;;;10.18;4.85;;;2.10;99.90;;;;;;5071096;28;20459;-89
2023/03/08 09:15:30;;;;;;;11.20;5.00;;;2.40;99.90;;;;;;5052511;28;20123;-89
2023/03/08 09:17:57;;;;;;;14.02;5.40;;;2.40;99.90;;;;;;5051251;28;20123;-89
2023/03/08 09:20:23;;;;;;;10.27;5.07;;;2.20;99.90;;;;;;5045235;28;20044;-88
2023/03/08 09:22:48;;;;;;;10.35;4.93;;;4.20;99.90;;;;;;5056228;28;20498;-89
2023/03/08 09:25:14;;;;;;;10.02;4.90;;;2.60;99.90;;;;;;5055189;28;20129;-87
2023/03/08 09:27:41;;;;;;;10.98;4.88;;;2.70;99.90;;;;;;5069003;28;20055;-86
2023/03/08 09:30:15;;;;;;;11.88;5.10;;;2.70;99.90;;;;;;5058031;28;20036;-87
2023/03/08 09:32:41;;;;;;;12.52;5.22;;;3.60;99.90;;;;;;5054616;28;20056;-86
2023/03/08 09:35:08;;;;;;;10.75;4.95;;;2.80;99.90;;;;;;5062699;28;20072;-87
2023/03/08 09:37:34;;;;;;;11.85;5.93;;;2.90;99.90;;;;;;5051000;28;20039;-87
2023/03/08 09:40:00;;;;;;;12.23;5.40;;;4.00;99.90;;;;;;5069442;28;20044;-87
2023/03/08 09:42:30;;;;;;;10.35;5.03;;;3.00;99.90;;;;;;5070232;28;20033;-87
2023/03/08 09:45:11;;;;;;;10.77;4.70;;;4.40;99.90;;;;;;5068599;28;20048;-86
2023/03/08 09:47:51;;;;;;;9.48;4.90;;;3.20;99.90;;;;;;5068429;28;20285;-88
2023/03/08 09:50:30;;;;;;;11.07;4.40;;;3.30;99.90;;;;;;5054959;28;20470;-89
2023/03/08 09:53:09;;;;;;;11.75;4.40;;;3.40;99.90;;;;;;5070970;28;20048;-88
2023/03/08 09:55:43;;;;;;;9.68;4.40;;;3.40;99.90;;;;;;5070647;28;20044;-89
2023/03/08 09:58:30;;;;;;;10.18;4.00;;;3.40;99.90;;;;;;5072886;28;20146;-88
2023/03/08 10:01:26;;;;;;;10.98;3.85;;;3.50;99.90;;;;;;5041680;28;20049;-89
2023/03/08 10:04:17;;;;;;;8.85;3.67;;;3.60;99.90;;;;;;5072860;28;20040;-88
2023/03/08 10:07:31;;;;;;;8.95;3.42;;;3.60;99.90;;;;;;5048820;28;20036;-86
2023/03/08 10:10:29;;;;;;;9.50;3.72;;;3.70;99.90;;;;;;5051266;28;20458;-88
2023/03/08 10:13:04;;;;;;;8.82;3.75;;;3.80;99.90;;;;;;5020254;28;20101;-87
2023/03/08 10:15:32;;;;;;;9.43;3.40;;;3.90;99.90;;;;;;5070023;28;20053;-86
2023/03/08 10:18:17;;;;;;;9.68;3.25;;;3.90;99.90;;;;;;5037541;28;20048;-89
2023/03/08 10:20:43;;;;;;;10.05;3.10;;;4.10;99.90;;;;;;5069958;28;20041;-87
2023/03/08 10:23:18;;;;;;;8.32;3.10;;;5.10;99.90;;;;;;5069542;28;20497;-88
2023/03/08 10:25:45;;;;;;;8.57;2.67;;;5.80;99.90;;;;;;5068072;28;20037;-90
2023/03/08 10:28:16;;;;;;;7.95;2.65;;;6.10;99.90;;;;;;5043098;28;20048;-88
2023/03/08 10:30:58;;;;;;;8.23;3.22;;;4.70;99.90;;;;;;5053793;28;20044;-88
2023/03/08 10:33:30;;;;;;;8.07;3.20;;;4.40;99.90;;;;;;5052366;28;20135;-89
2023/03/08 10:36:14;;;;;;;8.90;3.40;;;5.70;99.90;;;;;;5049799;28;20580;-89
2023/03/08 10:38:40;;;;;;;9.60;3.22;;;4.50;99.90;;;;;;5070487;28;20055;-88
2023/03/08 10:41:17;;;;;;;9.35;3.20;;;4.60;99.90;;;;;;5050641;28;20037;-88
2023/03/08 10:43:48;;;;;;;9.80;3.30;;;4.60;99.90;;;;;;5070286;28;20043;-88
2023/03/08 10:46:20;;;;;;;9.48;3.88;;;6.00;99.90;;;;;;5069938;28;20075;-87
2023/03/08 10:48:47;;;;;;;10.73;3.38;;;4.60;99.90;;;;;;5052589;28;20382;-92
2023/03/08 10:51:23;;;;;;;9.65;3.53;;;6.50;99.90;;;;;;5043440;28;20098;-90
2023/03/08 10:53:54;;;;;;;9.15;3.10;;;4.60;99.90;;;;;;5053346;28;20036;-89
2023/03/08 10:56:59;;;;;;;8.65;3.47;;;4.70;99.90;;;;;;5052997;28;20129;-88
2023/03/08 10:59:33;;;;;;;8.57;2.55;;;4.80;99.90;;;;;;5035487;28;20136;-86
2023/03/08 11:02:14;;;;;;;6.68;2.10;;;4.80;99.90;;;;;;5079917;28;20055;-89
2023/03/08 11:04:57;;;;;;;4.38;1.60;;;4.90;99.90;;;;;;5070438;28;20106;-90
2023/03/08 11:07:31;;;;;;;4.53;1.80;;;4.90;99.90;;;;;;5068327;28;20068;-89
2023/03/08 11:10:27;;;;;;;5.20;1.70;;;4.90;99.90;;;;;;5069824;28;20501;-88
2023/03/08 11:13:22;;;;;;;7.25;2.17;;;4.80;99.90;;;;;;5043262;28;20052;-88
2023/03/08 11:16:28;;;;;;;7.75;2.65;;;5.50;99.90;;;;;;5067710;28;20064;-86
2023/03/08 11:19:00;;;;;;;6.97;2.60;;;4.90;99.90;;;;;;5000997;28;20122;-86
2023/03/08 11:21:25;;;;;;;6.97;2.25;;;4.90;99.90;;;;;;5052984;28;20051;-88
2023/03/08 11:23:57;;;;;;;7.65;2.40;;;6.70;99.90;;;;;;5065746;28;20495;-88
2023/03/08 11:26:41;;;;;;;6.80;2.40;;;4.90;99.90;;;;;;5052500;28;20043;-86
2023/03/08 11:29:31;;;;;;;6.05;2.15;;;5.00;99.90;;;;;;5069692;28;20347;-87
2023/03/08 11:31:57;;;;;;;7.22;2.47;;;5.10;99.90;;;;;;5052035;28;20056;-89
2023/03/08 11:34:44;;;;;;;6.50;2.40;;;5.80;99.90;;;;;;5073704;28;20047;-89
2023/03/08 11:37:28;;;;;;;8.18;2.08;;;5.20;99.90;;;;;;5073174;28;20036;-88
2023/03/08 11:40:07;;;;;;;7.22;2.35;;;5.20;99.90;;;;;;5069203;28;20340;-88
2023/03/08 11:42:59;;;;;;;6.88;1.98;;;5.20;99.90;;;;;;5068160;28;20067;-89
2023/03/08 11:45:50;;;;;;;5.65;1.90;;;5.20;99.90;;;;;;5068454;28;20404;-89
2023/03/08 11:48:25;;;;;;;7.38;1.90;;;5.30;99.90;;;;;;5069118;28;20068;-86
2023/03/08 11:51:19;;;;;;;5.43;1.90;;;6.50;99.90;;;;;;5051716;28;20040;-87
2023/03/08 11:54:06;;;;;;;7.63;2.33;;;5.30;99.90;;;;;;5050675;28;20501;-89
2023/03/08 11:56:47;;;;;;;5.47;2.10;;;5.40;99.90;;;;;;5052101;28;20404;-86
2023/03/08 11:59:23;;;;;;;4.70;1.80;;;5.40;99.90;;;;;;5067960;28;20045;-88
2023/03/08 12:02:10;;;;;;;5.05;1.60;;;5.30;99.90;;;;;;5068233;28;20478;-90
2023/03/08 12:04:44;;;;;;;6.63;1.70;;;4.80;99.90;;;;;;5067671;28;20106;-87
2023/03/08 12:07:38;;;;;;;7.90;2.10;;;5.40;99.90;;;;;;5068328;28;20051;-86
2023/03/08 12:10:36;;;;;;;7.63;1.90;;;6.60;99.90;;;;;;5063765;28;20443;-88
2023/03/08 12:13:21;;;;;;;5.82;1.70;;;5.40;99.90;;;;;;5038746;28;20517;-89
2023/03/08 12:16:09;;;;;;;6.68;1.85;;;5.40;99.90;;;;;;5049192;28;20047;-90
2023/03/08 12:18:59;;;;;;;6.60;1.80;;;5.50;99.90;;;;;;5067916;28;20097;-87
2023/03/08 12:21:46;;;;;;;6.78;1.80;;;5.60;99.90;;;;;;5067752;28;20553;-86
2023/03/08 12:24:50;;;;;;;8.50;2.42;;;5.70;99.90;;;;;;5051909;28;20090;-88
2023/03/08 12:27:25;;;;;;;5.45;1.70;;;5.60;99.90;;;;;;5066711;28;20041;-88
2023/03/08 12:29:57;;;;;;;6.15;1.90;;;5.70;99.90;;;;;;5068436;28;20462;-87
2023/03/08 12:32:24;;;;;;;6.80;1.85;;;5.70;99.90;;;;;;5066808;28;20509;-87
2023/03/08 12:35:05;;;;;;;4.50;1.48;;;5.60;99.90;;;;;;5051775;28;20052;-85
2023/03/08 12:37:31;;;;;;;4.43;1.58;;;5.60;99.90;;;;;;5067139;28;20552;-87
2023/03/08 12:40:09;;;;;;;6.60;1.85;;;7.10;99.90;;;;;;5051284;28;20036;-89
2023/03/08 12:42:40;;;;;;;6.93;1.67;;;5.50;99.90;;;;;;5067708;28;20463;-87
2023/03/08 12:45:28;;;;;;;7.57;1.83;;;5.50;99.90;;;;;;5063280;28;20501;-89
2023/03/08 12:48:03;;;;;;;5.05;1.70;;;5.50;99.90;;;;;;5066561;28;20525;-86
2023/03/08 12:50:30;;;;;;;5.40;1.70;;;5.50;99.90;;;;;;5054624;28;20512;-87
2023/03/08 12:52:57;;;;;;;6.03;1.70;;;5.50;99.90;;;;;;5067833;28;20501;-87
2023/03/08 12:55:31;;;;;;;6.72;2.00;;;6.70;99.90;;;;;;5050857;28;20056;-86
2023/03/08 12:58:00;;;;;;;5.93;1.80;;;5.70;99.90;;;;;;5050420;28;20119;-88
2023/03/08 13:00:33;;;;;;;8.10;1.90;;;7.20;99.90;;;;;;5067718;28;20048;-85
2023/03/08 13:03:34;;;;;;;5.00;1.73;;;5.60;99.90;;;;;;5051394;28;20036;-88
2023/03/08 13:06:00;;;;;;;5.32;1.70;;;7.20;99.90;;;;;;5061020;28;20041;-87
2023/03/08 13:08:36;;;;;;;8.77;1.88;;;5.70;99.90;;;;;;5033313;28;20045;-91
2023/03/08 13:11:13;;;;;;;8.85;2.00;;;5.60;99.90;;;;;;5042494;28;20067;-86
2023/03/08 13:13:56;;;;;;;5.50;1.90;;;6.60;99.90;;;;;;5067961;28;20053;-87